createdAt,value
2023-04-29T00:00:07.828Z,11.14
2023-04-29T00:03:02.586Z,11.16
2023-04-29T00:05:48.669Z,11.18
2023-04-29T00:08:34.472Z,11.20
2023-04-29T00:11:20.657Z,11.23
2023-04-29T00:14:06.329Z,11.23
2023-04-29T00:16:51.818Z,11.21
2023-04-29T00:19:37.230Z,11.21
2023-04-29T00:22:22.886Z,11.22
2023-04-29T00:25:09.025Z,11.20
2023-04-29T00:27:54.618Z,11.16
2023-04-29T00:30:40.083Z,11.14
2023-04-29T00:33:25.967Z,11.11
2023-04-29T00:36:11.520Z,11.08
2023-04-29T00:38:57.568Z,11.04
2023-04-29T00:41:43.351Z,11.04
2023-04-29T00:44:28.712Z,11.03
2023-04-29T00:47:14.064Z,11.05
2023-04-29T00:49:59.932Z,11.07
2023-04-29T00:52:46.145Z,11.07
2023-04-29T00:55:33.550Z,11.10
2023-04-29T00:58:20.121Z,11.10
2023-04-29T01:01:05.502Z,11.10
2023-04-29T01:03:51.654Z,11.11
2023-04-29T01:06:57.410Z,11.10
2023-04-29T01:10:31.590Z,11.12
2023-04-29T01:13:38.118Z,11.14
2023-04-29T01:16:39.525Z,11.17
2023-04-29T01:19:48.148Z,11.22
2023-04-29T01:22:33.843Z,11.23
2023-04-29T01:25:19.628Z,11.24
2023-04-29T01:28:40.914Z,11.26
2023-04-29T01:31:39.049Z,11.26
2023-04-29T01:34:50.577Z,11.25
2023-04-29T01:37:57.636Z,11.26
2023-04-29T01:40:49.982Z,11.27
2023-04-29T01:43:41.845Z,11.29
2023-04-29T01:46:38.812Z,11.27
2023-04-29T01:49:28.736Z,11.24
2023-04-29T01:52:14.396Z,11.25
2023-04-29T01:55:04.905Z,11.26
2023-04-29T01:57:59.455Z,11.22
2023-04-29T02:01:03.914Z,11.21
2023-04-29T02:03:51.872Z,11.20
2023-04-29T02:06:37.602Z,11.17
2023-04-29T02:09:24.172Z,11.16
2023-04-29T02:12:14.066Z,11.13
2023-04-29T02:15:00.414Z,11.09
2023-04-29T02:17:46.993Z,11.06
2023-04-29T02:20:32.440Z,11.04
2023-04-29T02:23:17.893Z,11.02
2023-04-29T02:26:06.412Z,11.01
2023-04-29T02:28:52.714Z,11.01
2023-04-29T02:31:39.789Z,10.94
2023-04-29T02:34:25.446Z,10.85
2023-04-29T02:37:12.766Z,10.77
2023-04-29T02:39:58.510Z,10.64
2023-04-29T02:42:43.989Z,10.55
2023-04-29T02:45:29.493Z,10.48
2023-04-29T02:48:14.926Z,10.40
2023-04-29T02:51:00.637Z,10.38
2023-04-29T02:53:46.130Z,10.33
2023-04-29T02:56:31.699Z,10.28
2023-04-29T02:59:17.140Z,10.24
2023-04-29T03:02:02.721Z,10.20
2023-04-29T03:04:48.235Z,10.20
2023-04-29T03:07:33.678Z,10.17
2023-04-29T03:10:19.281Z,10.13
2023-04-29T03:13:05.060Z,10.15
2023-04-29T03:15:52.057Z,10.15
2023-04-29T03:18:37.638Z,10.21
2023-04-29T03:21:25.435Z,10.25
2023-04-29T03:24:11.491Z,10.25
2023-04-29T03:26:57.063Z,10.29
2023-04-29T03:29:42.708Z,10.36
2023-04-29T03:32:29.163Z,10.46
2023-04-29T03:35:15.873Z,10.53
2023-04-29T03:38:21.690Z,10.60
2023-04-29T03:41:07.646Z,10.70
2023-04-29T03:43:54.991Z,10.74
2023-04-29T03:46:40.607Z,10.80
2023-04-29T03:49:26.246Z,10.86
2023-04-29T03:52:12.778Z,10.91
2023-04-29T03:54:58.527Z,11.00
2023-04-29T03:57:44.077Z,11.07
2023-04-29T04:00:31.649Z,11.12
2023-04-29T04:03:22.322Z,11.14
2023-04-29T04:06:08.073Z,11.17
2023-04-29T04:08:54.165Z,11.20
2023-04-29T04:11:44.689Z,11.25
2023-04-29T04:14:31.759Z,11.26
2023-04-29T04:17:17.586Z,11.26
2023-04-29T04:20:03.103Z,11.26
2023-04-29T04:22:48.552Z,11.29
2023-04-29T04:25:46.758Z,11.32
2023-04-29T04:28:51.228Z,11.37
2023-04-29T04:31:58.855Z,11.44
2023-04-29T04:34:44.981Z,11.46
2023-04-29T04:37:30.706Z,11.50
2023-04-29T04:40:18.772Z,11.53
2023-04-29T04:43:24.604Z,11.56
2023-04-29T04:46:14.400Z,11.60
2023-04-29T04:49:20.452Z,11.61
2023-04-29T04:52:11.973Z,11.64
2023-04-29T04:54:57.346Z,11.65
2023-04-29T04:57:45.212Z,11.67
2023-04-29T05:00:30.629Z,11.69
2023-04-29T05:03:16.204Z,11.71
2023-04-29T05:06:02.042Z,11.73
2023-04-29T05:08:48.757Z,11.75
2023-04-29T05:11:35.191Z,11.79
2023-04-29T05:14:30.201Z,11.82
2023-04-29T05:17:15.912Z,11.85
2023-04-29T05:20:01.780Z,11.86
2023-04-29T05:22:48.497Z,11.86
2023-04-29T05:25:34.421Z,11.91
2023-04-29T05:28:20.239Z,11.97
2023-04-29T05:31:06.404Z,12.03
2023-04-29T05:33:52.308Z,12.08
2023-04-29T05:36:37.874Z,12.15
2023-04-29T05:39:23.947Z,12.23
2023-04-29T05:42:20.173Z,12.26
2023-04-29T05:45:09.674Z,12.32
2023-04-29T05:47:55.678Z,12.39
2023-04-29T05:50:41.818Z,12.44
2023-04-29T05:53:27.400Z,12.56
2023-04-29T05:56:13.137Z,12.67
2023-04-29T05:58:59.259Z,12.75
2023-04-29T06:01:45.283Z,12.80
2023-04-29T06:04:31.367Z,12.84
2023-04-29T06:07:36.401Z,12.89
2023-04-29T06:10:42.345Z,13.00
2023-04-29T06:13:30.244Z,13.14
2023-04-29T06:16:16.097Z,13.26
2023-04-29T06:19:02.143Z,13.27
2023-04-29T06:21:47.661Z,13.30
2023-04-29T06:24:32.914Z,13.37
2023-04-29T06:27:18.864Z,13.43
2023-04-29T06:30:04.839Z,13.44
2023-04-29T06:32:50.375Z,13.44
2023-04-29T06:35:40.189Z,13.46
2023-04-29T06:38:29.203Z,13.50
2023-04-29T06:41:32.101Z,13.54
2023-04-29T06:44:27.668Z,13.57
2023-04-29T06:47:22.621Z,13.57
2023-04-29T06:50:25.043Z,13.56
2023-04-29T06:53:10.846Z,13.57
2023-04-29T06:55:56.726Z,13.68
2023-04-29T06:58:42.193Z,13.80
2023-04-29T07:01:27.629Z,13.90
2023-04-29T07:04:13.185Z,13.93
2023-04-29T07:06:59.699Z,13.96
2023-04-29T07:09:46.033Z,14.08
2023-04-29T07:12:31.319Z,14.23
2023-04-29T07:15:16.917Z,14.37
2023-04-29T07:18:06.741Z,14.53
2023-04-29T07:20:53.083Z,14.64
2023-04-29T07:23:38.748Z,14.64
2023-04-29T07:26:24.210Z,14.59
2023-04-29T07:29:09.669Z,14.57
2023-04-29T07:31:55.103Z,14.69
2023-04-29T07:34:40.466Z,14.83
2023-04-29T07:37:26.030Z,14.88
2023-04-29T07:40:12.063Z,14.96
2023-04-29T07:42:57.819Z,15.07
2023-04-29T07:45:43.157Z,15.11
2023-04-29T07:48:29.080Z,15.12
2023-04-29T07:51:15.509Z,15.13
2023-04-29T07:54:01.349Z,15.14
2023-04-29T07:56:46.769Z,15.16
2023-04-29T07:59:32.691Z,15.23
2023-04-29T08:02:18.670Z,15.34
2023-04-29T08:05:06.581Z,15.45
2023-04-29T08:07:52.494Z,15.50
2023-04-29T08:10:41.005Z,15.48
2023-04-29T08:13:28.197Z,15.53
2023-04-29T08:16:13.680Z,15.53
2023-04-29T08:18:59.340Z,15.52
2023-04-29T08:21:44.728Z,15.49
2023-04-29T08:24:31.172Z,15.45
2023-04-29T08:27:16.577Z,15.49
2023-04-29T08:30:02.204Z,15.53
2023-04-29T08:32:47.879Z,15.59
2023-04-29T08:35:33.779Z,15.69
2023-04-29T08:38:19.740Z,15.82
2023-04-29T08:41:09.387Z,15.88
2023-04-29T08:43:54.588Z,15.87
2023-04-29T08:46:40.706Z,15.85
2023-04-29T08:49:26.578Z,15.84
2023-04-29T08:52:12.364Z,15.81
2023-04-29T08:54:59.585Z,15.79
2023-04-29T08:57:50.368Z,15.78
2023-04-29T09:00:37.083Z,15.86
2023-04-29T09:03:36.286Z,15.90
2023-04-29T09:06:21.817Z,15.90
2023-04-29T09:09:07.735Z,15.96
2023-04-29T09:11:53.498Z,16.07
2023-04-29T09:14:38.925Z,16.17
2023-04-29T09:17:47.282Z,16.36
2023-04-29T09:20:32.875Z,16.50
2023-04-29T09:23:18.230Z,16.58
2023-04-29T09:26:03.952Z,16.60
2023-04-29T09:29:11.884Z,16.62
2023-04-29T09:31:58.977Z,16.62
2023-04-29T09:34:44.624Z,16.60
2023-04-29T09:37:30.947Z,16.64
2023-04-29T09:40:50.239Z,16.72
2023-04-29T09:43:42.490Z,16.80
2023-04-29T09:46:27.839Z,16.91
2023-04-29T09:49:27.766Z,16.92
2023-04-29T09:52:16.783Z,16.91
2023-04-29T09:55:06.281Z,16.85
2023-04-29T09:57:51.933Z,16.84
2023-04-29T10:00:37.598Z,16.91
2023-04-29T10:03:23.333Z,16.92
2023-04-29T10:06:09.151Z,16.92
2023-04-29T10:08:55.295Z,16.84
2023-04-29T10:11:41.131Z,16.75
2023-04-29T10:14:27.741Z,16.67
2023-04-29T10:17:37.078Z,16.60
2023-04-29T10:20:24.426Z,16.56
2023-04-29T10:23:12.546Z,16.49
2023-04-29T10:26:01.037Z,16.49
2023-04-29T10:28:48.119Z,16.53
2023-04-29T10:31:35.605Z,16.68
2023-04-29T10:34:22.172Z,16.86
2023-04-29T10:37:16.819Z,17.08
2023-04-29T10:40:16.246Z,17.26
2023-04-29T10:43:01.877Z,17.36
2023-04-29T10:45:47.448Z,17.41
2023-04-29T10:48:32.802Z,17.47
2023-04-29T10:51:33.513Z,17.53
2023-04-29T10:54:25.459Z,17.77
2023-04-29T10:57:21.146Z,17.92
2023-04-29T11:00:07.515Z,17.96
2023-04-29T11:02:56.881Z,17.90
2023-04-29T11:05:42.557Z,17.84
2023-04-29T11:08:28.361Z,17.81
2023-04-29T11:11:15.033Z,17.77
2023-04-29T11:14:03.990Z,17.71
2023-04-29T11:16:53.623Z,17.65
2023-04-29T11:19:46.661Z,17.68
2023-04-29T11:22:33.888Z,17.70
2023-04-29T11:25:19.529Z,17.70
2023-04-29T11:28:05.842Z,17.76
2023-04-29T11:30:51.812Z,17.85
2023-04-29T11:33:37.154Z,17.85
2023-04-29T11:36:22.630Z,17.88
2023-04-29T11:39:08.468Z,18.04
2023-04-29T11:42:06.753Z,18.18
2023-04-29T11:44:54.513Z,18.17
2023-04-29T11:47:47.049Z,18.23
2023-04-29T11:50:32.893Z,18.23
2023-04-29T11:53:22.234Z,18.19
2023-04-29T11:56:11.854Z,18.09
2023-04-29T11:58:58.352Z,18.00
2023-04-29T12:01:44.014Z,17.91
2023-04-29T12:04:29.760Z,17.81
2023-04-29T12:07:19.409Z,17.73
2023-04-29T12:10:12.073Z,17.73
2023-04-29T12:12:58.752Z,17.70
2023-04-29T12:15:46.563Z,17.76
2023-04-29T12:18:32.217Z,17.78
2023-04-29T12:21:17.884Z,17.81
2023-04-29T12:24:03.679Z,18.01
2023-04-29T12:26:49.708Z,18.17
2023-04-29T12:29:40.657Z,18.20
2023-04-29T12:32:26.393Z,18.26
2023-04-29T12:35:18.452Z,18.36
2023-04-29T12:38:04.463Z,18.44
2023-04-29T12:40:51.067Z,18.54
2023-04-29T12:43:37.409Z,18.59
2023-04-29T12:46:23.750Z,18.49
2023-04-29T12:49:09.251Z,18.25
2023-04-29T12:51:54.708Z,17.95
2023-04-29T12:54:44.127Z,17.77
2023-04-29T12:57:29.760Z,17.60
2023-04-29T13:00:15.600Z,17.46
2023-04-29T13:03:01.805Z,17.36
2023-04-29T13:05:51.311Z,17.28
2023-04-29T13:08:37.899Z,17.21
2023-04-29T13:11:23.960Z,17.13
2023-04-29T13:14:09.796Z,17.08
2023-04-29T13:16:55.385Z,16.97
2023-04-29T13:19:51.320Z,16.88
2023-04-29T13:22:38.164Z,16.76
2023-04-29T13:25:23.667Z,16.67
2023-04-29T13:28:08.884Z,16.68
2023-04-29T13:30:54.608Z,16.71
2023-04-29T21:48:18.441Z,8.78
2023-04-29T21:51:05.350Z,8.75
2023-04-29T21:53:51.345Z,8.69
2023-04-29T21:56:37.248Z,8.60
2023-04-29T21:59:22.941Z,8.55
2023-04-29T22:02:21.728Z,8.51
2023-04-29T22:05:08.291Z,8.48
2023-04-29T22:07:54.981Z,8.47
2023-04-29T22:10:41.498Z,8.44
2023-04-29T22:13:27.371Z,8.42
2023-04-29T22:16:13.101Z,8.43
2023-04-29T22:18:58.562Z,8.43
2023-04-29T22:21:44.566Z,8.41
2023-04-29T22:24:29.934Z,8.41
2023-04-29T22:27:15.928Z,8.41
2023-04-29T22:30:01.712Z,8.41
2023-04-29T22:32:47.107Z,8.38
2023-04-29T22:35:32.610Z,8.32
2023-04-29T22:38:18.167Z,8.33
2023-04-29T22:41:04.522Z,8.35
2023-04-29T22:43:52.117Z,8.38
2023-04-29T22:46:37.640Z,8.40
2023-04-29T22:49:23.225Z,8.43
2023-04-29T22:52:08.893Z,8.43
2023-04-29T22:54:54.537Z,8.43
2023-04-29T22:57:40.063Z,8.42
2023-04-29T23:00:25.438Z,8.43
2023-04-29T23:03:10.881Z,8.44
2023-04-29T23:06:00.612Z,8.42
2023-04-29T23:08:46.012Z,8.43
2023-04-29T23:11:32.571Z,8.44
2023-04-29T23:14:20.876Z,8.45
2023-04-29T23:17:06.556Z,8.45
2023-04-29T23:19:52.253Z,8.51
2023-04-29T23:22:38.044Z,8.50
2023-04-29T23:25:23.415Z,8.49
2023-04-29T23:28:09.311Z,8.48
2023-04-29T23:30:55.051Z,8.47
2023-04-29T23:33:40.330Z,8.47
2023-04-29T23:36:26.006Z,8.47
2023-04-29T23:39:11.374Z,8.47
2023-04-29T23:41:56.849Z,8.47
2023-04-29T23:44:42.493Z,8.48
2023-04-29T23:47:28.080Z,8.50
2023-04-29T23:50:14.096Z,8.50
2023-04-29T23:52:59.521Z,8.51
2023-04-29T23:55:45.154Z,8.53
2023-04-29T23:58:30.728Z,8.53
